All
Dax-Seyresse Airport LFBY Weather
|
(LFBY)
Clear skies
Calm winds |
|
59 °F |
LFBY Terminal Area Forecast
| Date | Time (CEST) | Flight Rules | Wind Dir. | Speed | Type | Height AGL (ft) | Visibility | Remarks | ||||||
|---|---|---|---|---|---|---|---|---|---|---|---|---|---|---|
Recent LFBY METAR history
| Date | Time (CEST) | Flight Rules | Wind Dir. | Speed | Type | Height AGL (ft) | Visibility | Temp (°C) | Temp (°F) | Dew Point (°C) | Dew Point (°F) | Rel. Humid. | Pressure | Density Altitude | Remarks |
|---|---|---|---|---|---|---|---|---|---|---|---|---|---|---|---|
| 03-May | 12:00AM | VFR | Variable | 2 kt | 10000 meters | 15° | 59° | 14° | 57° | 94% | 1014 mb | 85 ft | |||
| 02-May | 11:30PM | VFR | 130° | 5 kt | 10000 meters | 15° | 59° | 14° | 57° | 94% | 1013 mb | 114 ft | |||
| 02-May | 11:00PM | VFR | 130° | 5 kt | 10000 meters | 15° | 59° | 14° | 57° | 94% | 1014 mb | 85 ft | |||
| 02-May | 10:30PM | VFR | 110° | 6 kt | 10000 meters | 15° | 59° | 14° | 57° | 94% | 1014 mb | 85 ft | |||
| 02-May | 10:00PM | VFR | Variable | 3 kt | 10000 meters | 16° | 60° | 15° | 59° | 94% | 1014 mb | 205 ft | |||
| 02-May | 09:30PM | VFR | 170° | 3 kt | 10000 meters | 16° | 60° | 14° | 57° | 88% | 1014 mb | 205 ft | |||
| 02-May | 09:00PM | VFR | Variable | 3 kt | 10000 meters | 16° | 60° | 15° | 59° | 94% | 1014 mb | 205 ft | |||
| 02-May | 08:30PM | VFR | 180° | 5 kt | 10000 meters | 16° | 60° | 15° | 59° | 94% | 1014 mb | 205 ft | |||
| 02-May | 08:00PM | VFR | Variable | 1 kt | 10000 meters | 17° | 62° | 15° | 59° | 88% | 1014 mb | 325 ft | |||
| 02-May | 07:30PM | VFR | 280° | 4 kt | 10000 meters | 17° | 62° | 16° | 60° | 94% | 1014 mb | 325 ft | |||
| 02-May | 07:00PM | VFR | Variable | 2 kt | 10000 meters | 17° | 62° | 15° | 59° | 88% | 1014 mb | 325 ft | |||
| 02-May | 06:30PM | VFR | 130° | 5 kt | 10000 meters | 16° | 60° | 15° | 59° | 94% | 1015 mb | 175 ft | |||
| 02-May | 06:00PM | VFR | 110° | 4 kt | 10000 meters | 17° | 62° | 15° | 59° | 88% | 1015 mb | 295 ft | |||
| 02-May | 05:30PM | VFR | 110° | 6 kt | 10000 meters |
17° | 62° | 15° | 59° | 88% | 1015 mb | 295 ft | |||
| 02-May | 05:00PM | MVFR | 70° | 3 kt | 6000 meters |
17° | 62° | 15° | 59° | 88% | 1015 mb | 295 ft | |||
| 02-May | 04:30PM | VFR | 330° | 4 kt | 10000 meters | 17° | 62° | 14° | 57° | 82% | 1016 mb | 266 ft | |||
| 02-May | 04:00PM | VFR | 280° | 7 kt | 10000 meters | 18° | 64° | 14° | 57° | 77% | 1016 mb | 386 ft | |||
| 02-May | 03:30PM | VFR | 250° | 11 kt | 10000 meters | 20° | 68° | 15° | 59° | 73% | 1016 mb | 626 ft | Wind gusting to 21 KT | ||
| 02-May | 03:00PM | VFR | 310° | 4 kt | 10000 meters | 21° | 69° | 16° | 60° | 73% | 1016 mb | 746 ft | |||
| 02-May | 02:30PM | VFR | 300° | 4 kt | 10000 meters | 21° | 69° | 16° | 60° | 73% | 1016 mb | 746 ft | |||
| 02-May | 02:00PM | VFR | 10° | 5 kt | 10000 meters | 21° | 69° | 16° | 60° | 73% | 1016 mb | 746 ft | |||
| 02-May | 01:30PM | VFR | 310° | 4 kt | 10000 meters | 20° | 68° | 17° | 62° | 83% | 1016 mb | 626 ft | |||
| 02-May | 01:00PM | VFR | 30° | 3 kt | 10000 meters | 20° | 68° | 15° | 59° | 73% | 1016 mb | 626 ft | |||
| 02-May | 12:30PM | VFR | Variable | 3 kt | 10000 meters | 19° | 66° | 14° | 57° | 73% | 1016 mb | 506 ft |
Login
| Your browser is unsupported. upgrade your browser |
